Time;durP1;ratioP1;P1;durP2;ratioP2;P2;SDS_P1;SDS_P2;PMS_P1;PMS_P2;Temp;Humidity;BMP_temperature;BMP_pressure;BME280_temperature;BME280_humidity;BME280_pressure;Samples;Min_cycle;Max_cycle;Signal;HPM_P1;HPM_P2
2021/06/18 00:00:13;;;;;;;5.25;4.60;;;;;;;14.66;76.80;96557.81;5115136;28;20020;-62
2021/06/18 00:02:39;;;;;;;6.65;6.05;;;;;;;14.60;77.19;96552.06;5115336;28;20023;-62
2021/06/18 00:05:09;;;;;;;6.47;5.10;;;;;;;14.71;77.59;96548.81;5115070;28;20023;-62
2021/06/18 00:07:35;;;;;;;8.10;6.55;;;;;;;14.72;76.65;96547.91;5115171;28;20477;-63
2021/06/18 00:10:00;;;;;;;5.50;4.63;;;;;;;14.77;76.57;96549.34;5115080;28;20092;-63
2021/06/18 00:12:26;;;;;;;5.85;4.60;;;;;;;14.74;76.12;96543.41;5114963;28;20034;-63
2021/06/18 00:14:52;;;;;;;7.75;4.20;;;;;;;14.71;75.56;96543.56;5114654;28;20032;-61
2021/06/18 00:17:17;;;;;;;5.68;4.85;;;;;;;14.68;76.38;96541.09;5114845;28;20469;-61
2021/06/18 00:19:43;;;;;;;8.45;5.75;;;;;;;14.70;76.85;96541.88;5114204;28;20034;-60
2021/06/18 00:22:08;;;;;;;8.55;5.30;;;;;;;14.76;76.60;96545.03;5114794;28;20034;-61
2021/06/18 00:24:34;;;;;;;13.00;5.13;;;;;;;14.77;76.33;96543.22;5114858;28;20354;-62
2021/06/18 00:26:59;;;;;;;7.20;5.30;;;;;;;14.81;77.03;96546.59;5114733;28;20553;-64
2021/06/18 00:29:25;;;;;;;11.05;6.50;;;;;;;14.73;77.48;96546.97;5114654;28;20370;-61
2021/06/18 00:31:51;;;;;;;8.20;5.13;;;;;;;14.73;77.64;96542.56;5114510;28;20023;-59
2021/06/18 00:34:16;;;;;;;12.65;6.07;;;;;;;14.66;77.69;96542.03;5114487;28;20040;-63
2021/06/18 00:36:42;;;;;;;6.95;5.78;;;;;;;14.74;78.07;96543.41;5114627;28;20015;-61
2021/06/18 00:39:08;;;;;;;12.82;5.50;;;;;;;14.76;77.27;96541.53;5114428;28;20023;-63
2021/06/18 00:41:33;;;;;;;9.80;6.15;;;;;;;14.78;77.25;96539.72;5114378;28;20023;-61
2021/06/18 00:43:59;;;;;;;9.02;5.25;;;;;;;14.79;77.27;96538.78;5114355;28;20419;-62
2021/06/18 00:46:25;;;;;;;11.48;5.88;;;;;;;14.78;77.38;96535.28;5114289;28;20496;-62
2021/06/18 00:48:51;;;;;;;9.40;5.80;;;;;;;14.72;77.05;96532.13;5114188;28;20058;-62
2021/06/18 00:51:18;;;;;;;9.15;6.55;;;;;;;14.76;77.50;96536.28;5114167;28;20027;-63
2021/06/18 00:53:44;;;;;;;8.35;4.63;;;;;;;14.81;77.04;96536.88;5114349;28;20038;-63
2021/06/18 00:56:09;;;;;;;6.40;4.32;;;;;;;14.86;76.58;96531.38;5114160;28;20028;-62
2021/06/18 00:58:35;;;;;;;5.00;4.30;;;;;;;14.83;76.40;96534.16;5114055;28;20023;-60
2021/06/18 01:01:01;;;;;;;5.15;4.20;;;;;;;14.84;76.20;96534.09;5113975;28;20039;-63
2021/06/18 01:03:26;;;;;;;5.57;3.85;;;;;;;14.85;76.32;96532.31;5113915;28;20103;-63
2021/06/18 01:05:52;;;;;;;6.07;3.95;;;;;;;14.85;75.96;96527.91;5113970;28;20469;-62
2021/06/18 01:08:26;;;;;;;10.65;6.53;;;;;;;14.82;75.95;96529.84;5113988;28;20062;-63
2021/06/18 01:11:39;;;;;;;10.68;5.15;;;;;;;14.88;76.44;96527.75;5113946;28;20023;-61
2021/06/18 01:14:17;;;;;;;8.75;4.80;;;;;;;14.86;76.06;96519.06;5068721;28;20071;-62
2021/06/18 01:16:52;;;;;;;8.10;5.72;;;;;;;14.82;76.45;96527.22;5113700;28;20048;-62
2021/06/18 01:19:25;;;;;;;6.78;4.35;;;;;;;14.83;76.24;96528.91;5113905;28;20031;-62
2021/06/18 01:21:54;;;;;;;7.15;4.95;;;;;;;14.79;76.44;96528.25;5095502;28;20027;-60
2021/06/18 01:24:34;;;;;;;7.15;5.22;;;;;;;14.80;76.37;96526.44;5113627;28;20078;-60
2021/06/18 01:27:00;;;;;;;6.93;4.50;;;;;;;14.78;76.23;96527.38;5113648;28;20557;-59
2021/06/18 01:29:31;;;;;;;7.13;5.25;;;;;;;14.78;76.50;96524.75;5113587;28;20023;-59
2021/06/18 01:31:58;;;;;;;;;;;;;;;14.80;76.50;96529.06;5113294;28;20076;-63
2021/06/18 01:34:29;;;;;;;16.45;4.70;;;;;;;14.75;76.40;96524.06;5113626;28;19912;-63
2021/06/18 01:36:59;;;;;;;4.97;4.40;;;;;;;14.71;76.73;96519.88;5113526;28;20491;-62
2021/06/18 01:39:25;;;;;;;8.30;4.18;;;;;;;14.74;76.48;96517.06;5113484;28;20081;-59
2021/06/18 01:41:53;;;;;;;6.00;4.82;;;;;;;14.79;76.25;96520.34;5113520;28;20503;-61
2021/06/18 01:44:22;;;;;;;4.68;3.72;;;;;;;14.75;76.39;96516.16;5113488;28;20035;-61
2021/06/18 01:46:49;;;;;;;4.65;4.10;;;;;;;14.77;76.67;96512.50;5113366;28;20026;-61
2021/06/18 01:49:17;;;;;;;8.25;3.90;;;;;;;14.68;76.37;96517.41;5113392;28;20016;-61
2021/06/18 01:51:45;;;;;;;6.07;4.40;;;;;;;14.63;76.73;96520.31;5113487;28;20023;-61
2021/06/18 01:54:14;;;;;;;8.82;4.65;;;;;;;14.61;76.81;96523.03;5113551;28;20051;-59
2021/06/18 01:56:41;;;;;;;10.93;4.40;;;;;;;14.64;76.55;96522.88;5113440;28;20043;-60
2021/06/18 01:59:07;;;;;;;9.35;4.18;;;;;;;14.65;76.55;96527.19;5113284;28;20028;-61
2021/06/18 02:01:36;;;;;;;7.20;4.18;;;;;;;14.65;76.67;96526.31;5113147;28;20122;-63
2021/06/18 02:04:05;;;;;;;5.20;4.50;;;;;;;14.70;76.48;96528.72;5113225;28;20115;-62
2021/06/18 02:06:32;;;;;;;10.35;3.83;;;;;;;14.72;76.49;96532.13;5113293;28;20484;-60
2021/06/18 02:09:00;;;;;;;6.80;3.65;;;;;;;14.72;76.39;96532.94;5113342;28;20065;-62
2021/06/18 02:11:28;;;;;;;4.45;3.50;;;;;;;14.67;76.39;96535.00;5113232;28;20031;-61
2021/06/18 02:13:55;;;;;;;7.32;5.03;;;;;;;14.65;76.34;96539.47;5113109;28;20023;-59
2021/06/18 02:16:28;;;;;;;4.22;3.83;;;;;;;14.63;76.47;96536.94;5112942;28;20044;-61
2021/06/18 02:18:58;;;;;;;4.72;3.78;;;;;;;14.61;76.64;96537.97;5113215;28;20094;-61
2021/06/18 02:21:26;;;;;;;6.78;3.65;;;;;;;14.53;76.62;96541.84;5113042;28;20023;-63
2021/06/18 02:23:54;;;;;;;6.85;4.35;;;;;;;14.51;77.08;96529.72;5113025;28;20114;-62
2021/06/18 02:26:24;;;;;;;8.48;3.88;;;;;;;14.47;76.92;96539.56;5113142;28;20451;-63
2021/06/18 02:28:50;;;;;;;7.80;3.70;;;;;;;14.48;76.93;96541.25;5112978;28;20028;-61
2021/06/18 02:31:18;;;;;;;5.00;3.75;;;;;;;14.51;76.52;96541.09;5113091;28;20256;-62
2021/06/18 02:33:44;;;;;;;6.13;3.58;;;;;;;14.53;76.44;96543.63;5113192;28;20023;-61
2021/06/18 02:36:09;;;;;;;5.30;4.00;;;;;;;14.52;76.34;96539.31;5112957;28;20043;-60
2021/06/18 02:38:35;;;;;;;6.43;4.00;;;;;;;14.50;76.19;96543.78;5112978;28;20377;-61
2021/06/18 02:41:01;;;;;;;8.23;4.32;;;;;;;14.50;75.94;96535.91;5094754;28;20069;-61
2021/06/18 02:43:26;;;;;;;4.68;3.55;;;;;;;14.49;75.99;96539.47;5115655;28;20374;-61
2021/06/18 02:45:52;;;;;;;8.63;3.60;;;;;;;14.45;75.91;96530.06;5116686;28;20032;-59
2021/06/18 02:48:26;;;;;;;7.97;3.95;;;;;;;14.45;75.92;96530.88;5116773;28;20020;-61
2021/06/18 02:51:00;;;;;;;4.93;3.33;;;;;;;14.45;75.84;96527.41;5116709;28;20032;-59
2021/06/18 02:53:34;;;;;;;7.10;3.45;;;;;;;14.38;76.30;96524.25;5116579;28;20114;-61
2021/06/18 02:56:23;;;;;;;5.55;4.30;;;;;;;14.32;76.21;96530.69;5116553;28;20032;-60
2021/06/18 02:58:51;;;;;;;3.90;3.33;;;;;;;14.25;76.52;96527.56;5116449;28;20036;-60
2021/06/18 03:01:20;;;;;;;6.53;3.85;;;;;;;14.21;76.66;96527.81;5116262;28;20028;-63
2021/06/18 03:03:48;;;;;;;7.45;4.20;;;;;;;14.25;76.78;96526.69;5116322;28;20019;-62
2021/06/18 03:06:16;;;;;;;3.75;3.45;;;;;;;14.27;76.89;96523.03;5116342;28;20481;-60
2021/06/18 03:09:01;;;;;;;4.32;3.50;;;;;;;14.24;76.82;96523.22;5116226;28;20100;-63
2021/06/18 03:11:30;;;;;;;5.63;3.65;;;;;;;14.25;76.93;96522.28;5116172;28;20024;-61
2021/06/18 03:13:58;;;;;;;6.53;3.80;;;;;;;14.30;76.85;96519.41;5116054;28;20098;-62
2021/06/18 03:16:28;;;;;;;3.65;3.25;;;;;;;14.34;76.89;96520.09;5115815;28;20100;-61
2021/06/18 03:18:56;;;;;;;8.23;3.30;;;;;;;14.36;76.91;96521.69;5116114;28;20020;-61
2021/06/18 03:21:25;;;;;;;9.07;3.28;;;;;;;14.43;76.85;96522.25;5115936;28;20028;-61
2021/06/18 03:23:52;;;;;;;7.72;4.47;;;;;;;14.46;76.91;96524.72;5115960;28;20024;-60
2021/06/18 03:26:19;;;;;;;3.60;3.30;;;;;;;14.53;76.86;96526.06;5115934;28;20015;-62
2021/06/18 03:28:46;;;;;;;6.75;3.60;;;;;;;14.57;76.54;96521.47;5115850;28;20469;-60
2021/06/18 03:31:13;;;;;;;5.88;3.70;;;;;;;14.59;76.57;96527.50;5115839;28;20165;-61
2021/06/18 03:33:41;;;;;;;6.22;4.82;;;;;;;14.62;77.35;96524.72;5115716;28;20233;-62
2021/06/18 03:36:07;;;;;;;11.73;3.72;;;;;;;14.63;77.36;96518.50;5115739;28;20047;-62
2021/06/18 03:38:33;;;;;;;7.18;3.63;;;;;;;14.66;77.29;96514.88;5097356;28;20096;-60
2021/06/18 03:41:00;;;;;;;4.45;4.05;;;;;;;14.60;77.98;96510.78;5115584;28;20392;-59
2021/06/18 03:43:26;;;;;;;3.95;3.50;;;;;;;14.68;77.85;96520.03;5115663;28;20012;-63
2021/06/18 03:46:00;;;;;;;7.03;3.83;;;;;;;14.74;77.86;96510.03;5115618;28;20382;-61
2021/06/18 03:48:27;;;;;;;4.80;4.13;;;;;;;14.80;78.27;96516.75;5115452;28;20024;-63
2021/06/18 03:50:53;;;;;;;3.90;3.60;;;;;;;14.87;77.97;96522.56;5115480;28;20093;-60
2021/06/18 03:53:18;;;;;;;5.70;3.72;;;;;;;14.96;77.96;96516.75;5115025;28;20016;-61
2021/06/18 03:55:48;;;;;;;5.00;3.40;;;;;;;15.05;77.90;96517.19;5096599;28;20123;-61
2021/06/18 03:58:17;;;;;;;6.35;3.42;;;;;;;15.08;77.47;96517.00;5115254;28;20065;-62
2021/06/18 04:00:45;;;;;;;4.03;3.30;;;;;;;15.08;77.65;96519.66;5115154;28;20072;-63
2021/06/18 04:03:12;;;;;;;12.20;3.58;;;;;;;15.13;77.98;96517.59;5115162;28;20106;-62
2021/06/18 04:05:41;;;;;;;5.40;3.55;;;;;;;15.18;78.21;96512.91;5115238;28;20103;-60
2021/06/18 04:08:07;;;;;;;7.43;4.32;;;;;;;15.25;78.28;96513.41;5115025;28;20051;-61
2021/06/18 04:10:34;;;;;;;5.95;3.53;;;;;;;15.33;78.55;96518.22;5114982;28;20469;-60
2021/06/18 04:13:01;;;;;;;5.80;5.00;;;;;;;15.44;79.99;96509.72;5114837;28;20039;-62
2021/06/18 04:15:27;;;;;;;7.00;5.20;;;;;;;15.52;80.09;96513.59;5114686;28;20063;-62
2021/06/18 04:17:53;;;;;;;5.60;4.72;;;;;;;15.65;80.07;96513.72;5114958;28;20053;-61
2021/06/18 04:20:23;;;;;;;5.47;4.70;;;;;;;15.79;80.49;96505.00;5114738;28;20107;-62
2021/06/18 04:22:50;;;;;;;6.53;4.87;;;;;;;15.91;80.35;96513.97;5114873;28;20119;-63
2021/06/18 04:25:16;;;;;;;5.57;4.88;;;;;;;16.01;80.45;96508.13;5114701;28;20039;-61
2021/06/18 04:27:42;;;;;;;5.30;4.28;;;;;;;16.13;80.34;96506.53;5114659;28;20024;-62
2021/06/18 04:30:10;;;;;;;7.45;4.93;;;;;;;16.28;80.12;96510.91;5114777;28;20036;-63
2021/06/18 04:32:36;;;;;;;5.95;4.30;;;;;;;16.44;79.66;96509.09;5114633;28;20019;-64
2021/06/18 04:35:06;;;;;;;4.80;4.30;;;;;;;16.55;80.10;96510.13;5114476;28;20026;-61
2021/06/18 04:37:33;;;;;;;6.25;3.97;;;;;;;16.70;78.10;96515.38;5114504;28;20043;-63
2021/06/18 04:39:59;;;;;;;5.35;4.25;;;;;;;16.78;79.15;96510.47;5114463;28;20026;-64
2021/06/18 04:42:24;;;;;;;5.55;4.53;;;;;;;16.92;79.51;96508.72;5114571;28;20374;-63
2021/06/18 04:44:50;;;;;;;4.90;3.90;;;;;;;17.03;79.66;96508.88;5114261;28;20042;-61
2021/06/18 04:47:15;;;;;;;5.32;4.88;;;;;;;17.17;80.43;96509.81;5114284;28;20027;-61
2021/06/18 04:49:41;;;;;;;4.32;3.97;;;;;;;17.29;80.10;96510.78;5114223;28;20034;-64
2021/06/18 04:52:07;;;;;;;4.60;4.10;;;;;;;17.35;80.32;96512.19;5114257;28;20019;-62
2021/06/18 04:54:33;;;;;;;5.50;4.85;;;;;;;17.44;80.36;96519.50;5114108;28;20038;-61
2021/06/18 04:56:59;;;;;;;8.48;4.38;;;;;;;17.57;80.18;96516.06;5114243;28;20033;-60
2021/06/18 04:59:24;;;;;;;4.75;4.10;;;;;;;17.67;79.69;96512.69;5114127;28;20376;-61
2021/06/18 05:01:50;;;;;;;6.13;4.05;;;;;;;17.78;78.63;96513.75;5113855;28;20031;-62
2021/06/18 05:04:16;;;;;;;4.45;4.05;;;;;;;17.87;79.48;96517.56;5114030;28;20019;-64
2021/06/18 05:06:41;;;;;;;6.60;3.13;;;;;;;17.95;75.55;96520.53;5113841;28;20012;-62
2021/06/18 05:09:09;;;;;;;3.88;3.58;;;;;;;18.01;76.45;96522.78;5113917;28;20102;-63
2021/06/18 05:11:41;;;;;;;4.07;3.70;;;;;;;18.04;74.73;96525.22;5113890;28;20024;-63
2021/06/18 05:14:07;;;;;;;3.92;3.38;;;;;;;18.12;76.65;96530.00;5113943;28;20385;-60
2021/06/18 05:16:32;;;;;;;6.47;4.05;;;;;;;18.18;77.12;96529.56;5113564;28;20058;-63
2021/06/18 05:18:58;;;;;;;3.47;3.17;;;;;;;18.24;73.55;96533.59;5113915;28;20026;-63
2021/06/18 05:21:23;;;;;;;5.78;4.05;;;;;;;18.34;73.92;96541.75;5113600;28;20031;-62
2021/06/18 05:23:49;;;;;;;4.18;3.70;;;;;;;18.39;75.98;96536.97;5113693;28;20107;-61
2021/06/18 05:26:14;;;;;;;4.10;3.80;;;;;;;18.46;74.79;96537.41;5113702;28;20435;-61
2021/06/18 05:28:40;;;;;;;6.10;3.65;;;;;;;18.54;74.05;96540.34;5113687;28;20020;-62
2021/06/18 05:31:06;;;;;;;6.57;4.18;;;;;;;18.62;74.41;96538.94;5113619;28;20015;-60
2021/06/18 05:33:31;;;;;;;4.35;3.85;;;;;;;18.66;73.35;96530.69;5113659;28;20062;-63
2021/06/18 05:35:57;;;;;;;4.05;3.65;;;;;;;18.81;75.59;96534.03;5113484;28;20157;-63
2021/06/18 05:38:23;;;;;;;3.65;3.33;;;;;;;18.90;75.53;96543.13;5113550;28;20012;-62
2021/06/18 05:40:48;;;;;;;5.57;3.65;;;;;;;19.05;75.08;96535.88;5113391;28;20034;-62
2021/06/18 05:43:14;;;;;;;7.35;3.38;;;;;;;19.16;72.87;96539.56;5113592;28;20016;-62
2021/06/18 05:45:40;;;;;;;7.45;3.65;;;;;;;19.28;72.10;96535.19;5113384;28;20512;-61
2021/06/18 05:48:06;;;;;;;5.50;3.72;;;;;;;19.40;70.32;96542.25;5113431;28;20024;-63
2021/06/18 05:50:32;;;;;;;5.32;2.92;;;;;;;19.47;70.66;96533.81;5113454;28;20022;-61
2021/06/18 05:52:58;;;;;;;3.85;2.95;;;;;;;19.44;67.56;96541.03;5113567;28;20028;-62
2021/06/18 05:55:23;;;;;;;3.72;3.30;;;;;;;19.49;68.29;96534.53;5113464;28;20032;-61
2021/06/18 05:57:53;;;;;;;3.47;3.17;;;;;;;19.50;68.96;96530.94;5113332;28;20036;-64
2021/06/18 06:00:19;;;;;;;3.20;2.90;;;;;;;19.51;69.45;96537.94;5113306;28;20071;-60
2021/06/18 06:02:45;;;;;;;7.07;3.10;;;;;;;19.50;69.13;96530.94;5113287;28;20059;-61
2021/06/18 06:05:11;;;;;;;5.65;3.30;;;;;;;19.45;68.58;96528.63;5113352;28;20111;-60
2021/06/18 06:07:37;;;;;;;3.60;3.30;;;;;;;19.36;67.18;96527.53;5113230;28;20016;-63
2021/06/18 06:10:04;;;;;;;5.60;2.90;;;;;;;19.32;67.58;96526.03;5113235;28;20028;-64
2021/06/18 06:12:30;;;;;;;3.67;3.20;;;;;;;19.28;68.80;96529.88;5113285;28;20112;-63
2021/06/18 06:14:55;;;;;;;3.53;3.22;;;;;;;19.14;69.21;96523.78;5113018;28;20091;-63
2021/06/18 06:17:21;;;;;;;4.03;3.25;;;;;;;19.17;68.24;96528.00;5114292;28;20027;-64
2021/06/18 06:19:47;;;;;;;3.58;3.28;;;;;;;19.18;68.35;96525.25;5117257;28;20026;-60
2021/06/18 06:22:13;;;;;;;3.83;2.97;;;;;;;19.12;67.90;96520.41;5117006;28;20035;-61
2021/06/18 06:24:40;;;;;;;3.92;3.00;;;;;;;19.18;66.86;96511.16;5117103;28;20119;-64
2021/06/18 06:27:06;;;;;;;4.07;3.28;;;;;;;19.27;66.81;96513.09;5117054;28;20023;-62
2021/06/18 06:29:32;;;;;;;3.15;2.55;;;;;;;19.26;66.56;96507.94;5117141;28;20034;-62
2021/06/18 06:31:58;;;;;;;3.20;2.90;;;;;;;19.30;65.73;96512.06;5117078;28;20027;-63
2021/06/18 06:34:23;;;;;;;5.60;3.10;;;;;;;19.36;66.22;96518.72;5116995;28;20062;-61
2021/06/18 06:36:49;;;;;;;4.25;2.97;;;;;;;19.37;65.71;96512.44;5098678;28;20035;-60
2021/06/18 06:39:15;;;;;;;5.10;2.40;;;;;;;19.40;66.00;96504.25;5116773;28;20533;-60
2021/06/18 06:41:41;;;;;;;3.78;2.50;;;;;;;19.40;65.29;96507.75;5116788;28;20110;-62
2021/06/18 06:44:06;;;;;;;2.55;2.35;;;;;;;19.45;65.36;96504.78;5116921;28;20362;-63
2021/06/18 06:46:33;;;;;;;4.63;2.70;;;;;;;19.54;64.11;96509.34;5116643;28;20015;-61
2021/06/18 06:48:59;;;;;;;5.13;2.30;;;;;;;19.53;64.11;96505.03;5116575;28;20020;-63
2021/06/18 06:51:24;;;;;;;2.88;2.67;;;;;;;19.58;66.22;96510.00;5116656;28;20031;-61
2021/06/18 06:53:50;;;;;;;3.53;2.92;;;;;;;19.61;66.44;96517.72;5116526;28;20492;-63
2021/06/18 06:56:16;;;;;;;3.20;2.72;;;;;;;19.69;64.86;96510.00;5116582;28;20023;-61
2021/06/18 06:58:44;;;;;;;5.03;2.72;;;;;;;19.73;64.05;96500.03;5116427;28;20027;-61
2021/06/18 07:01:13;;;;;;;7.25;2.65;;;;;;;19.81;64.21;96496.78;5116479;28;20031;-63
2021/06/18 07:03:39;;;;;;;6.10;2.72;;;;;;;19.81;64.92;96499.44;5116454;28;20058;-62
2021/06/18 07:06:06;;;;;;;3.28;2.80;;;;;;;19.89;65.28;96493.53;5116294;28;20157;-61
2021/06/18 07:08:31;;;;;;;5.57;2.97;;;;;;;19.94;65.02;96507.31;5116270;28;20038;-63
2021/06/18 07:10:57;;;;;;;3.95;2.65;;;;;;;20.01;65.10;96503.25;5116276;28;20020;-61
2021/06/18 07:13:23;;;;;;;3.88;2.70;;;;;;;20.09;65.25;96500.00;5116156;28;20561;-63
2021/06/18 07:15:52;;;;;;;2.92;2.53;;;;;;;20.27;65.70;96503.03;5115899;28;20401;-64
2021/06/18 07:18:18;;;;;;;5.22;2.63;;;;;;;20.39;63.09;96501.22;5116183;28;20026;-63
2021/06/18 07:20:44;;;;;;;2.78;2.45;;;;;;;20.40;63.37;96499.41;5116026;28;20492;-60
2021/06/18 07:23:09;;;;;;;5.20;2.28;;;;;;;20.51;63.01;96506.53;5116100;28;20032;-61
2021/06/18 07:25:38;;;;;;;4.50;2.42;;;;;;;20.58;65.32;96503.25;5115985;28;20347;-63
2021/06/18 07:28:05;;;;;;;3.35;2.50;;;;;;;20.57;62.77;96501.59;5115540;28;20065;-60
2021/06/18 07:30:31;;;;;;;7.22;2.80;;;;;;;20.64;63.88;96499.28;5096803;28;20423;-61
2021/06/18 07:32:57;;;;;;;5.15;2.67;;;;;;;20.61;62.34;96502.16;5115911;28;20107;-64
2021/06/18 07:35:23;;;;;;;3.05;2.50;;;;;;;20.61;61.67;96499.50;5115826;28;20106;-60
2021/06/18 07:37:48;;;;;;;3.22;2.65;;;;;;;20.62;62.88;96495.06;5115776;28;20088;-64
2021/06/18 07:40:16;;;;;;;3.45;2.40;;;;;;;20.63;63.54;96504.69;5115563;28;20091;-64
2021/06/18 07:42:42;;;;;;;2.65;2.42;;;;;;;20.64;63.52;96501.94;5115698;28;20024;-63
2021/06/18 07:45:09;;;;;;;2.75;2.55;;;;;;;20.66;64.63;96510.63;5115611;28;20069;-61
2021/06/18 07:47:34;;;;;;;3.83;2.75;;;;;;;20.69;64.63;96507.72;5115377;28;20427;-61
2021/06/18 07:50:00;;;;;;;5.55;2.58;;;;;;;20.63;64.09;96504.69;5115437;28;20024;-63
2021/06/18 07:52:26;;;;;;;9.20;2.60;;;;;;;20.39;63.76;96514.50;5115476;28;20474;-64
2021/06/18 07:54:53;;;;;;;5.25;2.80;;;;;;;20.37;65.74;96511.13;5115435;28;20039;-64
2021/06/18 07:57:19;;;;;;;5.88;3.20;;;;;;;20.34;64.79;96514.00;5115284;28;20483;-64
2021/06/18 07:59:45;;;;;;;3.08;2.78;;;;;;;20.35;65.32;96512.22;5115349;28;20024;-62
2021/06/18 08:02:11;;;;;;;4.05;2.90;;;;;;;20.31;67.60;96512.44;5115063;28;20023;-64
2021/06/18 08:04:36;;;;;;;3.25;2.90;;;;;;;20.32;65.97;96518.63;5115224;28;20016;-65
2021/06/18 08:07:02;;;;;;;2.88;2.65;;;;;;;20.40;66.98;96518.84;5115156;28;20019;-63
2021/06/18 08:09:28;;;;;;;3.20;2.90;;;;;;;20.41;66.71;96519.69;5115022;28;20016;-60
2021/06/18 08:11:53;;;;;;;3.67;3.33;;;;;;;20.39;65.66;96518.97;5115058;28;20031;-62
2021/06/18 08:14:19;;;;;;;8.20;3.03;;;;;;;20.39;65.81;96519.81;5114954;28;20549;-63
2021/06/18 08:16:45;;;;;;;4.70;2.97;;;;;;;20.43;65.89;96517.75;5114752;28;20504;-63
2021/06/18 08:19:11;;;;;;;3.58;2.70;;;;;;;20.40;65.86;96515.34;5114912;28;20031;-63
2021/06/18 08:21:36;;;;;;;3.72;2.88;;;;;;;20.32;65.70;96518.63;5114755;28;20059;-65
2021/06/18 08:24:03;;;;;;;3.75;3.10;;;;;;;20.15;65.53;96519.91;5114739;28;20473;-65
2021/06/18 08:26:28;;;;;;;4.03;3.20;;;;;;;20.20;66.66;96523.91;5114674;28;20059;-62
2021/06/18 08:28:54;;;;;;;8.27;3.38;;;;;;;20.26;67.04;96527.88;5114622;28;20051;-64
2021/06/18 08:31:19;;;;;;;5.40;2.97;;;;;;;20.18;67.53;96523.19;5114840;28;20542;-61
2021/06/18 08:33:46;;;;;;;5.32;3.17;;;;;;;20.11;67.46;96516.66;5114691;28;20055;-61
2021/06/18 08:36:12;;;;;;;4.25;2.95;;;;;;;20.10;66.81;96525.56;5114543;28;20090;-60
2021/06/18 08:38:39;;;;;;;4.78;3.40;;;;;;;20.12;66.46;96521.00;5114529;28;20024;-64
2021/06/18 08:41:05;;;;;;;3.20;2.90;;;;;;;20.14;65.62;96523.53;5113932;28;20024;-64
2021/06/18 08:43:32;;;;;;;4.38;3.10;;;;;;;20.01;66.43;96513.00;5114462;28;20385;-63
2021/06/18 08:46:01;;;;;;;4.22;3.40;;;;;;;19.96;67.88;96518.66;5114384;28;20035;-63
2021/06/18 08:48:29;;;;;;;4.43;4.00;;;;;;;19.91;67.44;96526.13;5114285;28;20043;-64
2021/06/18 08:50:54;;;;;;;5.35;4.40;;;;;;;19.69;67.83;96523.28;5114181;28;20153;-66
2021/06/18 08:53:23;;;;;;;6.65;4.30;;;;;;;19.65;68.75;96519.16;5114344;28;20102;-64
2021/06/18 08:55:50;;;;;;;5.13;4.32;;;;;;;19.68;69.46;96521.59;5114333;28;20028;-65
2021/06/18 08:58:16;;;;;;;6.53;4.82;;;;;;;19.56;69.25;96514.56;5114116;28;20027;-64
2021/06/18 09:00:42;;;;;;;5.88;5.18;;;;;;;19.67;69.61;96511.94;5114034;28;20546;-66
2021/06/18 09:03:45;;;;;;;6.03;5.20;;;;;;;19.78;69.29;96505.81;5114060;28;20110;-62
2021/06/18 09:06:36;;;;;;;5.75;4.57;;;;;;;19.83;69.73;96498.34;5114098;28;20042;-64
2021/06/18 09:09:18;;;;;;;5.55;5.05;;;;;;;19.97;71.37;96490.28;5114086;28;20035;-66
2021/06/18 09:12:02;;;;;;;5.20;4.70;;;;;;;20.16;70.64;96501.22;5113952;28;20530;-66
2021/06/18 09:14:35;;;;;;;4.38;3.97;;;;;;;20.26;68.95;96485.38;5113849;28;20035;-63
2021/06/18 09:17:12;;;;;;;4.47;4.05;;;;;;;20.35;68.43;96488.31;5113663;28;20050;-64
2021/06/18 09:20:04;;;;;;;4.20;3.80;;;;;;;20.40;68.04;96484.31;5114025;28;20038;-63
2021/06/18 09:22:39;;;;;;;4.57;4.18;;;;;;;20.40;70.21;96481.66;5113851;28;20035;-65
2021/06/18 09:25:11;;;;;;;4.00;3.60;;;;;;;20.39;68.52;96481.78;5113858;28;20097;-62
2021/06/18 09:27:49;;;;;;;6.18;4.25;;;;;;;20.42;69.05;96474.44;5113820;28;20045;-64
2021/06/18 09:30:35;;;;;;;4.53;3.53;;;;;;;20.47;68.09;96467.91;5113788;28;20042;-61
2021/06/18 09:33:02;;;;;;;5.10;3.75;;;;;;;20.49;67.22;96473.91;5113698;28;20385;-60
2021/06/18 09:35:30;;;;;;;8.40;3.22;;;;;;;20.43;67.22;96468.13;5113554;28;20116;-61
2021/06/18 09:37:58;;;;;;;3.78;3.40;;;;;;;20.31;67.43;96464.66;5113672;28;20051;-64
2021/06/18 09:40:24;;;;;;;4.15;3.38;;;;;;;20.37;66.15;96459.78;5113409;28;20541;-63
2021/06/18 09:42:54;;;;;;;3.53;3.20;;;;;;;20.31;67.88;96455.81;5095356;28;20376;-64
2021/06/18 09:45:24;;;;;;;3.67;3.38;;;;;;;20.41;68.17;96462.09;5113618;28;20032;-63
2021/06/18 09:47:51;;;;;;;3.42;3.13;;;;;;;20.47;65.90;96459.94;5113485;28;20039;-63
2021/06/18 09:50:27;;;;;;;4.10;3.70;;;;;;;20.59;66.66;96461.59;5113419;28;20058;-64
2021/06/18 09:53:09;;;;;;;4.30;3.90;;;;;;;20.75;69.20;96455.91;5115576;28;20043;-62
2021/06/18 09:55:35;;;;;;;5.25;3.50;;;;;;;20.94;68.72;96451.75;5117754;28;20068;-64
2021/06/18 09:58:00;;;;;;;3.47;2.97;;;;;;;21.08;68.65;96455.94;5117696;28;20019;-64
2021/06/18 10:00:27;;;;;;;3.85;3.55;;;;;;;21.26;66.25;96447.41;5099297;28;20028;-65
2021/06/18 10:02:54;;;;;;;3.83;3.45;;;;;;;21.37;65.79;96441.22;5117491;28;20055;-62
2021/06/18 10:05:33;;;;;;;7.35;3.35;;;;;;;21.57;65.38;96440.38;5117546;28;20028;-65
2021/06/18 10:07:59;;;;;;;4.25;3.08;;;;;;;21.67;63.38;96434.28;5117610;28;20028;-63
2021/06/18 10:10:36;;;;;;;3.78;3.35;;;;;;;21.80;63.32;96440.28;5117553;28;20035;-63
2021/06/18 10:13:02;;;;;;;3.70;2.92;;;;;;;21.96;63.38;96430.94;5117395;28;20106;-63
2021/06/18 10:15:30;;;;;;;3.72;2.97;;;;;;;22.14;63.30;96428.50;5117256;28;20541;-64
2021/06/18 10:17:58;;;;;;;5.60;3.15;;;;;;;22.33;63.07;96425.06;5117422;28;20020;-63
2021/06/18 10:20:29;;;;;;;3.47;3.00;;;;;;;22.49;63.99;96430.88;5117200;28;20043;-64
2021/06/18 10:23:00;;;;;;;4.60;3.00;;;;;;;22.76;65.43;96434.75;5117219;28;20099;-64
2021/06/18 10:25:34;;;;;;;6.32;3.33;;;;;;;22.97;62.38;96424.81;5117066;28;20084;-64
2021/06/18 10:28:05;;;;;;;7.50;2.80;;;;;;;23.14;61.10;96427.75;5117282;28;20015;-60
2021/06/18 10:30:33;;;;;;;6.65;3.35;;;;;;;23.36;60.16;96433.81;5098798;28;20043;-62
2021/06/18 10:33:01;;;;;;;5.82;2.78;;;;;;;23.41;57.98;96425.38;5117055;28;20034;-65
2021/06/18 10:35:51;;;;;;;4.00;3.00;;;;;;;23.39;58.29;96428.19;5116905;28;20043;-63
2021/06/18 10:38:35;;;;;;;3.05;2.67;;;;;;;23.25;59.67;96425.94;5116934;28;20023;-64
2021/06/18 10:41:13;;;;;;;8.40;3.05;;;;;;;23.15;60.13;96416.09;5116953;28;20055;-65
2021/06/18 10:43:43;;;;;;;5.03;2.60;;;;;;;23.14;59.45;96422.44;5116743;28;20024;-64
2021/06/18 10:46:20;;;;;;;7.15;3.00;;;;;;;23.10;60.69;96429.03;5116647;28;20028;-61
2021/06/18 10:48:51;;;;;;;3.78;3.13;;;;;;;23.08;61.37;96422.97;5116674;28;20473;-63
2021/06/18 10:51:26;;;;;;;4.35;3.20;;;;;;;23.08;59.47;96417.66;5116523;28;20385;-65
2021/06/18 10:54:02;;;;;;;3.63;3.33;;;;;;;23.07;59.01;96413.31;5116557;28;20028;-64
2021/06/18 10:56:49;;;;;;;3.88;3.40;;;;;;;23.14;61.26;96406.41;5116589;28;20358;-64
2021/06/18 10:59:31;;;;;;;4.55;2.88;;;;;;;23.16;59.89;96417.81;5116507;28;20062;-62
2021/06/18 11:01:59;;;;;;;4.25;3.70;;;;;;;23.08;60.28;96413.16;5116338;28;20046;-65
2021/06/18 11:04:41;;;;;;;4.50;3.55;;;;;;;23.02;62.36;96411.06;5116158;28;20031;-61
2021/06/18 11:07:20;;;;;;;3.60;3.10;;;;;;;22.95;61.03;96410.78;5116467;28;20085;-64
2021/06/18 11:09:47;;;;;;;7.65;3.75;;;;;;;23.00;60.53;96412.19;5116311;28;20024;-65
2021/06/18 11:12:22;;;;;;;3.78;3.35;;;;;;;23.05;62.32;96401.91;5116209;28;20158;-64
2021/06/18 11:14:57;;;;;;;5.65;3.53;;;;;;;22.94;62.86;96411.75;5116182;28;20028;-63
2021/06/18 11:17:53;;;;;;;8.93;4.07;;;;;;;23.03;63.39;96407.41;5116184;28;20341;-62
2021/06/18 11:20:22;;;;;;;5.22;2.88;;;;;;;23.06;60.29;96398.28;5116073;28;20465;-62
2021/06/18 11:25:36;;;;;;;5.30;3.33;;;;;;;23.33;64.46;96396.72;5116051;28;20520;-65
2021/06/18 11:28:26;;;;;;;4.63;4.05;;;;;;;23.29;61.48;96393.50;5115942;28;20051;-65
2021/06/18 11:30:54;;;;;;;5.90;4.68;;;;;;;23.29;63.13;96397.97;5116034;28;20134;-66
2021/06/18 11:33:53;;;;;;;5.32;3.88;;;;;;;23.23;63.15;96392.25;5115851;28;20044;-63
2021/06/18 11:36:22;;;;;;;7.10;3.72;;;;;;;23.05;62.62;96391.25;5086162;28;20035;-62
2021/06/18 11:38:58;;;;;;;4.88;3.80;;;;;;;22.99;63.04;96397.19;5115676;28;20027;-63
2021/06/18 11:41:26;;;;;;;5.07;3.88;;;;;;;22.94;62.27;96390.41;5115654;28;20389;-65
2021/06/18 11:43:55;;;;;;;4.30;3.63;;;;;;;22.85;63.09;96394.75;5115554;28;20024;-65